sensor_id;sensor_type;location;lat;lon;timestamp;P1;durP1;ratioP1;P2;durP2;ratioP2
37873;SDS011;23709;48.078;11.684;2023-05-07T00:00:47;13.65;;;9.68;;
37873;SDS011;23709;48.078;11.684;2023-05-07T00:03:19;11.17;;;9.00;;
37873;SDS011;23709;48.078;11.684;2023-05-07T00:05:53;14.68;;;8.57;;
37873;SDS011;23709;48.078;11.684;2023-05-07T00:08:25;16.23;;;8.77;;
37873;SDS011;23709;48.078;11.684;2023-05-07T00:10:57;16.05;;;9.27;;
37873;SDS011;23709;48.078;11.684;2023-05-07T00:13:30;11.40;;;8.38;;
37873;SDS011;23709;48.078;11.684;2023-05-07T00:16:07;17.20;;;9.32;;
37873;SDS011;23709;48.078;11.684;2023-05-07T00:18:39;14.98;;;8.48;;
37873;SDS011;23709;48.078;11.684;2023-05-07T00:21:11;15.80;;;9.18;;
37873;SDS011;23709;48.078;11.684;2023-05-07T00:23:44;12.27;;;7.97;;
37873;SDS011;23709;48.078;11.684;2023-05-07T00:26:16;14.55;;;8.32;;
37873;SDS011;23709;48.078;11.684;2023-05-07T00:28:50;13.13;;;7.97;;
37873;SDS011;23709;48.078;11.684;2023-05-07T00:31:22;9.70;;;8.00;;
37873;SDS011;23709;48.078;11.684;2023-05-07T00:33:55;17.37;;;8.73;;
37873;SDS011;23709;48.078;11.684;2023-05-07T00:36:27;12.23;;;8.10;;
37873;SDS011;23709;48.078;11.684;2023-05-07T00:39:00;12.23;;;9.55;;
37873;SDS011;23709;48.078;11.684;2023-05-07T00:41:35;15.88;;;8.90;;
37873;SDS011;23709;48.078;11.684;2023-05-07T00:44:07;12.52;;;8.85;;
37873;SDS011;23709;48.078;11.684;2023-05-07T00:46:39;11.25;;;7.85;;
37873;SDS011;23709;48.078;11.684;2023-05-07T00:49:12;12.03;;;9.07;;
37873;SDS011;23709;48.078;11.684;2023-05-07T00:51:44;14.60;;;9.77;;
37873;SDS011;23709;48.078;11.684;2023-05-07T00:54:18;14.95;;;10.52;;
37873;SDS011;23709;48.078;11.684;2023-05-07T00:56:51;12.55;;;9.10;;
37873;SDS011;23709;48.078;11.684;2023-05-07T00:59:25;16.63;;;9.82;;
37873;SDS011;23709;48.078;11.684;2023-05-07T01:01:58;13.85;;;8.45;;
37873;SDS011;23709;48.078;11.684;2023-05-07T01:04:31;14.00;;;8.15;;
37873;SDS011;23709;48.078;11.684;2023-05-07T01:07:04;11.18;;;7.97;;
37873;SDS011;23709;48.078;11.684;2023-05-07T01:09:37;11.25;;;8.38;;
37873;SDS011;23709;48.078;11.684;2023-05-07T01:12:09;18.27;;;8.32;;
37873;SDS011;23709;48.078;11.684;2023-05-07T01:14:42;10.70;;;8.18;;
37873;SDS011;23709;48.078;11.684;2023-05-07T01:17:15;14.68;;;7.78;;
37873;SDS011;23709;48.078;11.684;2023-05-07T01:19:50;11.43;;;8.15;;
37873;SDS011;23709;48.078;11.684;2023-05-07T01:22:30;15.75;;;8.73;;
37873;SDS011;23709;48.078;11.684;2023-05-07T01:25:04;11.82;;;8.25;;
37873;SDS011;23709;48.078;11.684;2023-05-07T01:27:37;15.43;;;8.38;;
37873;SDS011;23709;48.078;11.684;2023-05-07T01:30:10;17.70;;;9.30;;
37873;SDS011;23709;48.078;11.684;2023-05-07T01:32:45;12.93;;;8.43;;
37873;SDS011;23709;48.078;11.684;2023-05-07T01:35:24;14.45;;;8.85;;
37873;SDS011;23709;48.078;11.684;2023-05-07T01:37:58;13.90;;;8.98;;
37873;SDS011;23709;48.078;11.684;2023-05-07T01:40:32;11.68;;;8.40;;
37873;SDS011;23709;48.078;11.684;2023-05-07T01:43:06;13.38;;;7.97;;
37873;SDS011;23709;48.078;11.684;2023-05-07T01:45:40;12.38;;;8.02;;
37873;SDS011;23709;48.078;11.684;2023-05-07T01:48:12;9.95;;;7.75;;
37873;SDS011;23709;48.078;11.684;2023-05-07T01:50:47;12.38;;;8.50;;
37873;SDS011;23709;48.078;11.684;2023-05-07T01:53:19;12.13;;;7.93;;
37873;SDS011;23709;48.078;11.684;2023-05-07T01:55:51;16.52;;;9.50;;
37873;SDS011;23709;48.078;11.684;2023-05-07T01:58:26;19.58;;;8.30;;
37873;SDS011;23709;48.078;11.684;2023-05-07T02:00:58;11.30;;;8.30;;
37873;SDS011;23709;48.078;11.684;2023-05-07T02:03:31;10.43;;;8.18;;
37873;SDS011;23709;48.078;11.684;2023-05-07T02:06:12;12.02;;;8.68;;
37873;SDS011;23709;48.078;11.684;2023-05-07T02:08:45;18.77;;;8.70;;
37873;SDS011;23709;48.078;11.684;2023-05-07T02:11:20;15.85;;;7.97;;
37873;SDS011;23709;48.078;11.684;2023-05-07T02:13:52;11.27;;;9.07;;
37873;SDS011;23709;48.078;11.684;2023-05-07T02:16:24;13.55;;;8.63;;
37873;SDS011;23709;48.078;11.684;2023-05-07T02:18:57;11.82;;;8.35;;
37873;SDS011;23709;48.078;11.684;2023-05-07T02:21:30;11.73;;;7.95;;
37873;SDS011;23709;48.078;11.684;2023-05-07T02:24:02;10.02;;;7.10;;
37873;SDS011;23709;48.078;11.684;2023-05-07T02:26:34;11.73;;;7.53;;
37873;SDS011;23709;48.078;11.684;2023-05-07T02:29:07;8.63;;;7.18;;
37873;SDS011;23709;48.078;11.684;2023-05-07T02:31:41;9.50;;;7.40;;
37873;SDS011;23709;48.078;11.684;2023-05-07T02:36:47;15.43;;;8.25;;
37873;SDS011;23709;48.078;11.684;2023-05-07T02:39:23;15.35;;;8.55;;
37873;SDS011;23709;48.078;11.684;2023-05-07T02:41:55;12.57;;;8.18;;
37873;SDS011;23709;48.078;11.684;2023-05-07T02:44:27;13.15;;;8.00;;
37873;SDS011;23709;48.078;11.684;2023-05-07T02:47:03;9.88;;;6.65;;
37873;SDS011;23709;48.078;11.684;2023-05-07T02:49:36;13.45;;;7.97;;
37873;SDS011;23709;48.078;11.684;2023-05-07T02:52:09;11.15;;;8.02;;
37873;SDS011;23709;48.078;11.684;2023-05-07T02:54:42;13.80;;;9.30;;
37873;SDS011;23709;48.078;11.684;2023-05-07T02:57:14;14.95;;;8.93;;
37873;SDS011;23709;48.078;11.684;2023-05-07T02:59:46;16.70;;;8.70;;
37873;SDS011;23709;48.078;11.684;2023-05-07T03:02:19;14.25;;;8.50;;
37873;SDS011;23709;48.078;11.684;2023-05-07T03:04:52;12.95;;;8.07;;
37873;SDS011;23709;48.078;11.684;2023-05-07T03:07:25;8.98;;;7.22;;
37873;SDS011;23709;48.078;11.684;2023-05-07T03:09:57;12.02;;;7.82;;
37873;SDS011;23709;48.078;11.684;2023-05-07T03:12:29;9.30;;;7.68;;
37873;SDS011;23709;48.078;11.684;2023-05-07T03:15:02;14.75;;;8.00;;
37873;SDS011;23709;48.078;11.684;2023-05-07T03:17:35;11.18;;;8.18;;
37873;SDS011;23709;48.078;11.684;2023-05-07T03:20:08;9.95;;;6.65;;
37873;SDS011;23709;48.078;11.684;2023-05-07T03:22:42;14.45;;;7.53;;
37873;SDS011;23709;48.078;11.684;2023-05-07T03:25:14;9.18;;;7.07;;
37873;SDS011;23709;48.078;11.684;2023-05-07T03:27:47;11.00;;;7.15;;
37873;SDS011;23709;48.078;11.684;2023-05-07T03:30:22;11.07;;;7.90;;
37873;SDS011;23709;48.078;11.684;2023-05-07T03:32:54;11.05;;;7.18;;
37873;SDS011;23709;48.078;11.684;2023-05-07T03:35:27;12.00;;;6.95;;
37873;SDS011;23709;48.078;11.684;2023-05-07T03:37:59;12.10;;;7.70;;
37873;SDS011;23709;48.078;11.684;2023-05-07T03:40:36;8.93;;;7.10;;
37873;SDS011;23709;48.078;11.684;2023-05-07T03:43:08;9.25;;;7.72;;
37873;SDS011;23709;48.078;11.684;2023-05-07T03:45:45;8.25;;;7.20;;
37873;SDS011;23709;48.078;11.684;2023-05-07T03:48:22;8.60;;;6.78;;
37873;SDS011;23709;48.078;11.684;2023-05-07T03:50:57;14.23;;;7.57;;
37873;SDS011;23709;48.078;11.684;2023-05-07T03:53:34;10.57;;;7.68;;
37873;SDS011;23709;48.078;11.684;2023-05-07T03:56:06;10.52;;;7.32;;
37873;SDS011;23709;48.078;11.684;2023-05-07T03:58:41;10.88;;;7.88;;
37873;SDS011;23709;48.078;11.684;2023-05-07T04:01:15;10.88;;;7.72;;
37873;SDS011;23709;48.078;11.684;2023-05-07T04:03:47;10.82;;;7.57;;
37873;SDS011;23709;48.078;11.684;2023-05-07T04:06:19;10.80;;;7.10;;
37873;SDS011;23709;48.078;11.684;2023-05-07T04:08:53;11.93;;;7.70;;
37873;SDS011;23709;48.078;11.684;2023-05-07T04:11:26;10.30;;;7.97;;
37873;SDS011;23709;48.078;11.684;2023-05-07T04:13:58;9.27;;;7.10;;
37873;SDS011;23709;48.078;11.684;2023-05-07T04:16:31;10.88;;;7.38;;
37873;SDS011;23709;48.078;11.684;2023-05-07T04:19:03;11.25;;;8.07;;
37873;SDS011;23709;48.078;11.684;2023-05-07T04:21:36;10.30;;;8.03;;
37873;SDS011;23709;48.078;11.684;2023-05-07T04:24:08;9.90;;;7.72;;
37873;SDS011;23709;48.078;11.684;2023-05-07T04:26:41;10.37;;;8.43;;
37873;SDS011;23709;48.078;11.684;2023-05-07T04:29:13;11.10;;;7.15;;
37873;SDS011;23709;48.078;11.684;2023-05-07T04:31:45;9.25;;;7.57;;
37873;SDS011;23709;48.078;11.684;2023-05-07T04:34:18;11.30;;;7.00;;
37873;SDS011;23709;48.078;11.684;2023-05-07T04:36:50;10.20;;;7.72;;
37873;SDS011;23709;48.078;11.684;2023-05-07T04:39:23;10.15;;;7.35;;
37873;SDS011;23709;48.078;11.684;2023-05-07T04:41:56;9.02;;;7.28;;
37873;SDS011;23709;48.078;11.684;2023-05-07T04:44:28;10.95;;;7.88;;
37873;SDS011;23709;48.078;11.684;2023-05-07T04:47:02;9.82;;;7.20;;
37873;SDS011;23709;48.078;11.684;2023-05-07T04:49:35;10.80;;;7.50;;
37873;SDS011;23709;48.078;11.684;2023-05-07T04:52:08;12.40;;;7.93;;
37873;SDS011;23709;48.078;11.684;2023-05-07T04:54:40;13.70;;;8.10;;
37873;SDS011;23709;48.078;11.684;2023-05-07T04:57:12;12.30;;;8.50;;
37873;SDS011;23709;48.078;11.684;2023-05-07T04:59:46;10.93;;;8.48;;
37873;SDS011;23709;48.078;11.684;2023-05-07T05:02:18;10.90;;;8.10;;
37873;SDS011;23709;48.078;11.684;2023-05-07T05:04:51;12.48;;;8.23;;
37873;SDS011;23709;48.078;11.684;2023-05-07T05:07:24;14.88;;;8.82;;
37873;SDS011;23709;48.078;11.684;2023-05-07T05:09:57;10.27;;;8.50;;
37873;SDS011;23709;48.078;11.684;2023-05-07T05:12:30;13.50;;;8.85;;
37873;SDS011;23709;48.078;11.684;2023-05-07T05:15:04;9.63;;;7.70;;
37873;SDS011;23709;48.078;11.684;2023-05-07T05:17:37;10.02;;;8.10;;
37873;SDS011;23709;48.078;11.684;2023-05-07T05:20:10;11.35;;;7.43;;
37873;SDS011;23709;48.078;11.684;2023-05-07T05:22:44;12.00;;;8.25;;
37873;SDS011;23709;48.078;11.684;2023-05-07T05:25:17;14.75;;;8.38;;
37873;SDS011;23709;48.078;11.684;2023-05-07T05:27:50;15.63;;;8.40;;
37873;SDS011;23709;48.078;11.684;2023-05-07T05:30:22;10.30;;;9.15;;
37873;SDS011;23709;48.078;11.684;2023-05-07T05:32:56;12.68;;;8.57;;
37873;SDS011;23709;48.078;11.684;2023-05-07T05:35:30;11.07;;;8.45;;
37873;SDS011;23709;48.078;11.684;2023-05-07T05:38:06;9.90;;;8.00;;
37873;SDS011;23709;48.078;11.684;2023-05-07T05:40:38;10.73;;;8.77;;
37873;SDS011;23709;48.078;11.684;2023-05-07T05:43:11;10.52;;;8.50;;
37873;SDS011;23709;48.078;11.684;2023-05-07T05:45:43;11.55;;;8.45;;
37873;SDS011;23709;48.078;11.684;2023-05-07T05:48:16;9.70;;;7.53;;
37873;SDS011;23709;48.078;11.684;2023-05-07T05:50:48;10.93;;;8.27;;
37873;SDS011;23709;48.078;11.684;2023-05-07T05:53:22;12.93;;;8.82;;
37873;SDS011;23709;48.078;11.684;2023-05-07T05:55:55;11.65;;;7.47;;
37873;SDS011;23709;48.078;11.684;2023-05-07T05:58:27;12.15;;;7.72;;
37873;SDS011;23709;48.078;11.684;2023-05-07T06:01:04;10.25;;;7.53;;
37873;SDS011;23709;48.078;11.684;2023-05-07T06:03:38;9.38;;;7.10;;
37873;SDS011;23709;48.078;11.684;2023-05-07T06:06:17;11.95;;;6.97;;
37873;SDS011;23709;48.078;11.684;2023-05-07T06:08:49;8.63;;;6.93;;
37873;SDS011;23709;48.078;11.684;2023-05-07T06:11:27;9.20;;;7.70;;
37873;SDS011;23709;48.078;11.684;2023-05-07T06:14:00;17.15;;;7.63;;
37873;SDS011;23709;48.078;11.684;2023-05-07T06:16:34;10.20;;;7.15;;
37873;SDS011;23709;48.078;11.684;2023-05-07T06:19:10;9.50;;;6.93;;
37873;SDS011;23709;48.078;11.684;2023-05-07T06:21:43;9.02;;;7.55;;
37873;SDS011;23709;48.078;11.684;2023-05-07T06:24:16;7.47;;;6.37;;
37873;SDS011;23709;48.078;11.684;2023-05-07T06:26:48;10.43;;;7.18;;
37873;SDS011;23709;48.078;11.684;2023-05-07T06:29:20;9.75;;;6.72;;
37873;SDS011;23709;48.078;11.684;2023-05-07T06:31:53;8.93;;;6.10;;
37873;SDS011;23709;48.078;11.684;2023-05-07T06:34:27;11.10;;;6.50;;
37873;SDS011;23709;48.078;11.684;2023-05-07T06:37:00;8.93;;;6.43;;
37873;SDS011;23709;48.078;11.684;2023-05-07T06:39:45;9.20;;;5.70;;
37873;SDS011;23709;48.078;11.684;2023-05-07T06:42:17;6.10;;;5.50;;
37873;SDS011;23709;48.078;11.684;2023-05-07T06:44:51;5.65;;;4.88;;
37873;SDS011;23709;48.078;11.684;2023-05-07T06:47:24;5.97;;;5.07;;
37873;SDS011;23709;48.078;11.684;2023-05-07T06:49:58;10.05;;;5.13;;
37873;SDS011;23709;48.078;11.684;2023-05-07T06:52:35;6.78;;;4.93;;
37873;SDS011;23709;48.078;11.684;2023-05-07T06:55:08;6.72;;;5.13;;
37873;SDS011;23709;48.078;11.684;2023-05-07T06:57:41;5.18;;;4.35;;
37873;SDS011;23709;48.078;11.684;2023-05-07T07:00:13;5.10;;;4.28;;
37873;SDS011;23709;48.078;11.684;2023-05-07T07:02:55;8.32;;;4.13;;
37873;SDS011;23709;48.078;11.684;2023-05-07T07:05:31;7.25;;;4.30;;
37873;SDS011;23709;48.078;11.684;2023-05-07T07:08:05;6.55;;;4.25;;
37873;SDS011;23709;48.078;11.684;2023-05-07T07:10:38;5.90;;;4.30;;
37873;SDS011;23709;48.078;11.684;2023-05-07T07:13:11;5.30;;;4.07;;
37873;SDS011;23709;48.078;11.684;2023-05-07T07:15:43;6.97;;;3.57;;
37873;SDS011;23709;48.078;11.684;2023-05-07T07:18:16;3.80;;;3.43;;
37873;SDS011;23709;48.078;11.684;2023-05-07T07:23:22;5.80;;;3.55;;
37873;SDS011;23709;48.078;11.684;2023-05-07T07:25:55;7.57;;;3.63;;
37873;SDS011;23709;48.078;11.684;2023-05-07T07:28:28;7.32;;;4.03;;
37873;SDS011;23709;48.078;11.684;2023-05-07T07:31:00;5.57;;;3.90;;
37873;SDS011;23709;48.078;11.684;2023-05-07T07:33:34;5.47;;;3.67;;
37873;SDS011;23709;48.078;11.684;2023-05-07T07:36:06;5.35;;;3.70;;
37873;SDS011;23709;48.078;11.684;2023-05-07T07:38:39;5.15;;;3.53;;
37873;SDS011;23709;48.078;11.684;2023-05-07T07:41:12;11.10;;;4.25;;
37873;SDS011;23709;48.078;11.684;2023-05-07T07:43:44;9.07;;;3.88;;
37873;SDS011;23709;48.078;11.684;2023-05-07T07:46:22;7.30;;;3.72;;
37873;SDS011;23709;48.078;11.684;2023-05-07T07:48:54;5.47;;;3.67;;
37873;SDS011;23709;48.078;11.684;2023-05-07T07:51:26;5.32;;;4.43;;
37873;SDS011;23709;48.078;11.684;2023-05-07T07:53:59;7.45;;;4.45;;
37873;SDS011;23709;48.078;11.684;2023-05-07T07:56:36;5.88;;;4.45;;
37873;SDS011;23709;48.078;11.684;2023-05-07T07:59:10;8.57;;;4.88;;
37873;SDS011;23709;48.078;11.684;2023-05-07T08:01:45;5.78;;;3.35;;
37873;SDS011;23709;48.078;11.684;2023-05-07T08:04:17;4.63;;;3.85;;
37873;SDS011;23709;48.078;11.684;2023-05-07T08:06:49;4.07;;;3.60;;
37873;SDS011;23709;48.078;11.684;2023-05-07T08:09:22;7.05;;;4.10;;
37873;SDS011;23709;48.078;11.684;2023-05-07T08:11:55;4.88;;;3.53;;
37873;SDS011;23709;48.078;11.684;2023-05-07T08:14:28;5.78;;;3.88;;
37873;SDS011;23709;48.078;11.684;2023-05-07T08:17:00;5.00;;;4.17;;
37873;SDS011;23709;48.078;11.684;2023-05-07T08:19:33;7.38;;;4.38;;
37873;SDS011;23709;48.078;11.684;2023-05-07T08:22:08;7.00;;;4.13;;
37873;SDS011;23709;48.078;11.684;2023-05-07T08:24:43;6.63;;;3.92;;
37873;SDS011;23709;48.078;11.684;2023-05-07T08:27:15;6.27;;;4.23;;
37873;SDS011;23709;48.078;11.684;2023-05-07T08:29:48;5.30;;;4.43;;
37873;SDS011;23709;48.078;11.684;2023-05-07T08:32:22;7.20;;;3.95;;
37873;SDS011;23709;48.078;11.684;2023-05-07T08:34:54;5.40;;;4.13;;
37873;SDS011;23709;48.078;11.684;2023-05-07T08:37:27;5.60;;;4.75;;
37873;SDS011;23709;48.078;11.684;2023-05-07T08:40:00;6.00;;;4.53;;
37873;SDS011;23709;48.078;11.684;2023-05-07T08:42:36;4.72;;;4.22;;
37873;SDS011;23709;48.078;11.684;2023-05-07T08:45:10;5.80;;;4.35;;
37873;SDS011;23709;48.078;11.684;2023-05-07T08:47:47;8.50;;;4.53;;
37873;SDS011;23709;48.078;11.684;2023-05-07T08:50:26;7.60;;;3.90;;
37873;SDS011;23709;48.078;11.684;2023-05-07T08:52:59;7.75;;;4.22;;
37873;SDS011;23709;48.078;11.684;2023-05-07T08:55:32;7.20;;;3.77;;
37873;SDS011;23709;48.078;11.684;2023-05-07T08:58:05;6.88;;;4.50;;
37873;SDS011;23709;48.078;11.684;2023-05-07T09:00:39;4.53;;;3.63;;
37873;SDS011;23709;48.078;11.684;2023-05-07T09:03:13;4.03;;;3.33;;
37873;SDS011;23709;48.078;11.684;2023-05-07T09:05:49;4.05;;;3.35;;
37873;SDS011;23709;48.078;11.684;2023-05-07T09:08:27;7.70;;;4.15;;
37873;SDS011;23709;48.078;11.684;2023-05-07T09:11:03;5.20;;;3.58;;
37873;SDS011;23709;48.078;11.684;2023-05-07T09:13:35;5.07;;;3.50;;
37873;SDS011;23709;48.078;11.684;2023-05-07T09:16:09;7.22;;;4.18;;
37873;SDS011;23709;48.078;11.684;2023-05-07T09:18:48;4.55;;;3.40;;
37873;SDS011;23709;48.078;11.684;2023-05-07T09:21:23;42.90;;;6.45;;
37873;SDS011;23709;48.078;11.684;2023-05-07T09:23:58;10.40;;;5.10;;
37873;SDS011;23709;48.078;11.684;2023-05-07T09:26:39;7.05;;;4.18;;
37873;SDS011;23709;48.078;11.684;2023-05-07T09:29:15;6.18;;;4.18;;
37873;SDS011;23709;48.078;11.684;2023-05-07T09:31:49;4.63;;;3.70;;
37873;SDS011;23709;48.078;11.684;2023-05-07T09:36:55;4.50;;;3.50;;
37873;SDS011;23709;48.078;11.684;2023-05-07T09:39:45;4.47;;;3.10;;
37873;SDS011;23709;48.078;11.684;2023-05-07T09:42:24;4.57;;;3.17;;
37873;SDS011;23709;48.078;11.684;2023-05-07T09:45:02;8.65;;;3.13;;
37873;SDS011;23709;48.078;11.684;2023-05-07T09:47:40;3.17;;;2.88;;
37873;SDS011;23709;48.078;11.684;2023-05-07T09:50:18;4.80;;;3.33;;
37873;SDS011;23709;48.078;11.684;2023-05-07T09:52:54;3.97;;;3.10;;
37873;SDS011;23709;48.078;11.684;2023-05-07T09:55:28;3.85;;;2.85;;
37873;SDS011;23709;48.078;11.684;2023-05-07T09:58:01;3.70;;;2.70;;
37873;SDS011;23709;48.078;11.684;2023-05-07T10:00:35;9.35;;;3.53;;
37873;SDS011;23709;48.078;11.684;2023-05-07T10:03:14;4.75;;;2.83;;
37873;SDS011;23709;48.078;11.684;2023-05-07T10:05:58;5.65;;;2.58;;
37873;SDS011;23709;48.078;11.684;2023-05-07T10:08:31;3.83;;;2.80;;
37873;SDS011;23709;48.078;11.684;2023-05-07T10:11:06;5.18;;;2.70;;
37873;SDS011;23709;48.078;11.684;2023-05-07T10:13:38;11.98;;;3.40;;
37873;SDS011;23709;48.078;11.684;2023-05-07T10:16:13;6.05;;;3.65;;
37873;SDS011;23709;48.078;11.684;2023-05-07T10:18:50;6.95;;;3.22;;
37873;SDS011;23709;48.078;11.684;2023-05-07T10:21:27;5.53;;;3.50;;
37873;SDS011;23709;48.078;11.684;2023-05-07T10:24:04;7.47;;;3.28;;
37873;SDS011;23709;48.078;11.684;2023-05-07T10:26:47;7.30;;;3.80;;
37873;SDS011;23709;48.078;11.684;2023-05-07T10:34:47;6.40;;;3.28;;
37873;SDS011;23709;48.078;11.684;2023-05-07T10:37:23;4.05;;;2.70;;
37873;SDS011;23709;48.078;11.684;2023-05-07T10:39:56;4.90;;;2.92;;
37873;SDS011;23709;48.078;11.684;2023-05-07T10:42:31;5.68;;;3.30;;
37873;SDS011;23709;48.078;11.684;2023-05-07T10:45:13;4.65;;;2.92;;
37873;SDS011;23709;48.078;11.684;2023-05-07T10:51:20;4.45;;;2.60;;
37873;SDS011;23709;48.078;11.684;2023-05-07T10:56:51;4.95;;;3.25;;
37873;SDS011;23709;48.078;11.684;2023-05-07T10:59:32;2.65;;;2.40;;
37873;SDS011;23709;48.078;11.684;2023-05-07T11:02:15;3.65;;;2.50;;
37873;SDS011;23709;48.078;11.684;2023-05-07T11:05:20;3.13;;;2.60;;
37873;SDS011;23709;48.078;11.684;2023-05-07T11:08:04;2.63;;;2.30;;
37873;SDS011;23709;48.078;11.684;2023-05-07T11:10:52;4.07;;;2.65;;
37873;SDS011;23709;48.078;11.684;2023-05-07T11:13:46;3.90;;;2.28;;
37873;SDS011;23709;48.078;11.684;2023-05-07T11:16:29;5.30;;;2.30;;
37873;SDS011;23709;48.078;11.684;2023-05-07T11:21:50;4.70;;;2.70;;
37873;SDS011;23709;48.078;11.684;2023-05-07T11:24:44;4.35;;;2.78;;
37873;SDS011;23709;48.078;11.684;2023-05-07T11:27:22;6.18;;;3.40;;
37873;SDS011;23709;48.078;11.684;2023-05-07T11:29:55;5.30;;;2.90;;
37873;SDS011;23709;48.078;11.684;2023-05-07T11:32:29;6.00;;;3.13;;
37873;SDS011;23709;48.078;11.684;2023-05-07T11:35:04;4.45;;;3.00;;
37873;SDS011;23709;48.078;11.684;2023-05-07T11:37:37;6.13;;;3.97;;
37873;SDS011;23709;48.078;11.684;2023-05-07T11:40:10;4.25;;;3.78;;
37873;SDS011;23709;48.078;11.684;2023-05-07T11:42:46;4.15;;;3.45;;
37873;SDS011;23709;48.078;11.684;2023-05-07T11:45:24;3.63;;;2.85;;
37873;SDS011;23709;48.078;11.684;2023-05-07T11:47:57;5.13;;;3.17;;
37873;SDS011;23709;48.078;11.684;2023-05-07T11:50:29;7.93;;;3.70;;
37873;SDS011;23709;48.078;11.684;2023-05-07T11:53:07;6.82;;;4.00;;
37873;SDS011;23709;48.078;11.684;2023-05-07T11:55:39;6.72;;;3.47;;
37873;SDS011;23709;48.078;11.684;2023-05-07T11:58:12;6.45;;;3.20;;
37873;SDS011;23709;48.078;11.684;2023-05-07T12:00:52;7.03;;;3.80;;
37873;SDS011;23709;48.078;11.684;2023-05-07T12:03:25;6.45;;;4.13;;
37873;SDS011;23709;48.078;11.684;2023-05-07T12:06:02;5.80;;;3.90;;
37873;SDS011;23709;48.078;11.684;2023-05-07T12:08:37;4.90;;;3.50;;
37873;SDS011;23709;48.078;11.684;2023-05-07T12:11:29;8.48;;;4.05;;
37873;SDS011;23709;48.078;11.684;2023-05-07T12:14:02;6.35;;;4.03;;
37873;SDS011;23709;48.078;11.684;2023-05-07T12:16:39;5.80;;;3.78;;
37873;SDS011;23709;48.078;11.684;2023-05-07T12:19:12;7.00;;;4.00;;
37873;SDS011;23709;48.078;11.684;2023-05-07T12:21:46;7.78;;;4.22;;
37873;SDS011;23709;48.078;11.684;2023-05-07T12:24:19;6.83;;;3.80;;
37873;SDS011;23709;48.078;11.684;2023-05-07T12:26:52;5.53;;;4.80;;
37873;SDS011;23709;48.078;11.684;2023-05-07T12:29:25;5.22;;;3.72;;
37873;SDS011;23709;48.078;11.684;2023-05-07T12:31:57;6.95;;;5.07;;
37873;SDS011;23709;48.078;11.684;2023-05-07T12:34:31;7.65;;;3.95;;
37873;SDS011;23709;48.078;11.684;2023-05-07T12:37:03;4.53;;;4.13;;
37873;SDS011;23709;48.078;11.684;2023-05-07T12:39:35;5.20;;;3.90;;
37873;SDS011;23709;48.078;11.684;2023-05-07T12:42:08;4.63;;;4.20;;
37873;SDS011;23709;48.078;11.684;2023-05-07T12:44:46;6.65;;;3.90;;
37873;SDS011;23709;48.078;11.684;2023-05-07T12:47:18;4.63;;;3.90;;
37873;SDS011;23709;48.078;11.684;2023-05-07T12:49:52;5.38;;;3.75;;
37873;SDS011;23709;48.078;11.684;2023-05-07T12:52:26;4.10;;;3.70;;
37873;SDS011;23709;48.078;11.684;2023-05-07T12:55:06;5.75;;;3.50;;
37873;SDS011;23709;48.078;11.684;2023-05-07T12:57:40;5.47;;;3.78;;
37873;SDS011;23709;48.078;11.684;2023-05-07T13:00:13;5.97;;;4.05;;
37873;SDS011;23709;48.078;11.684;2023-05-07T13:02:46;4.55;;;3.70;;
37873;SDS011;23709;48.078;11.684;2023-05-07T13:05:19;13.32;;;3.63;;
37873;SDS011;23709;48.078;11.684;2023-05-07T13:07:54;3.95;;;3.20;;
37873;SDS011;23709;48.078;11.684;2023-05-07T13:10:27;4.13;;;3.55;;
37873;SDS011;23709;48.078;11.684;2023-05-07T13:13:00;5.53;;;3.90;;
37873;SDS011;23709;48.078;11.684;2023-05-07T13:15:33;6.93;;;3.47;;
37873;SDS011;23709;48.078;11.684;2023-05-07T13:18:05;5.95;;;3.85;;
37873;SDS011;23709;48.078;11.684;2023-05-07T13:20:38;6.43;;;4.20;;
37873;SDS011;23709;48.078;11.684;2023-05-07T13:23:10;5.13;;;3.93;;
37873;SDS011;23709;48.078;11.684;2023-05-07T13:25:42;4.35;;;3.45;;
37873;SDS011;23709;48.078;11.684;2023-05-07T13:28:15;7.95;;;3.75;;
37873;SDS011;23709;48.078;11.684;2023-05-07T13:30:47;15.63;;;4.20;;
37873;SDS011;23709;48.078;11.684;2023-05-07T13:33:20;3.83;;;3.05;;
37873;SDS011;23709;48.078;11.684;2023-05-07T13:35:52;3.65;;;3.08;;
37873;SDS011;23709;48.078;11.684;2023-05-07T13:38:24;5.80;;;3.63;;
37873;SDS011;23709;48.078;11.684;2023-05-07T13:40:56;5.22;;;3.45;;
37873;SDS011;23709;48.078;11.684;2023-05-07T13:43:29;4.13;;;3.55;;
37873;SDS011;23709;48.078;11.684;2023-05-07T13:46:03;4.95;;;3.13;;
37873;SDS011;23709;48.078;11.684;2023-05-07T13:48:36;5.40;;;3.10;;
37873;SDS011;23709;48.078;11.684;2023-05-07T13:51:08;7.18;;;2.88;;
37873;SDS011;23709;48.078;11.684;2023-05-07T13:53:43;3.30;;;2.70;;
37873;SDS011;23709;48.078;11.684;2023-05-07T13:56:15;6.50;;;3.13;;
37873;SDS011;23709;48.078;11.684;2023-05-07T13:58:47;3.05;;;2.70;;
37873;SDS011;23709;48.078;11.684;2023-05-07T14:01:31;3.17;;;2.72;;
37873;SDS011;23709;48.078;11.684;2023-05-07T14:04:03;5.55;;;3.35;;
37873;SDS011;23709;48.078;11.684;2023-05-07T14:06:36;3.47;;;2.60;;
37873;SDS011;23709;48.078;11.684;2023-05-07T14:09:08;3.75;;;2.42;;
37873;SDS011;23709;48.078;11.684;2023-05-07T14:11:43;3.22;;;2.65;;
37873;SDS011;23709;48.078;11.684;2023-05-07T14:14:16;4.93;;;3.03;;
37873;SDS011;23709;48.078;11.684;2023-05-07T14:16:49;3.72;;;2.88;;
37873;SDS011;23709;48.078;11.684;2023-05-07T14:19:21;7.47;;;2.88;;
37873;SDS011;23709;48.078;11.684;2023-05-07T14:21:56;4.63;;;3.53;;
37873;SDS011;23709;48.078;11.684;2023-05-07T14:24:29;6.13;;;3.40;;
37873;SDS011;23709;48.078;11.684;2023-05-07T14:27:08;5.07;;;2.95;;
37873;SDS011;23709;48.078;11.684;2023-05-07T14:29:41;5.05;;;3.10;;
37873;SDS011;23709;48.078;11.684;2023-05-07T14:32:14;3.38;;;3.00;;
37873;SDS011;23709;48.078;11.684;2023-05-07T14:34:47;3.90;;;2.72;;
37873;SDS011;23709;48.078;11.684;2023-05-07T14:37:20;3.65;;;3.03;;
37873;SDS011;23709;48.078;11.684;2023-05-07T14:39:52;4.25;;;3.17;;
37873;SDS011;23709;48.078;11.684;2023-05-07T14:42:24;6.55;;;3.45;;
37873;SDS011;23709;48.078;11.684;2023-05-07T14:44:57;3.80;;;3.00;;
37873;SDS011;23709;48.078;11.684;2023-05-07T14:47:29;3.58;;;3.03;;
37873;SDS011;23709;48.078;11.684;2023-05-07T14:50:03;5.93;;;3.40;;
37873;SDS011;23709;48.078;11.684;2023-05-07T14:52:36;7.28;;;3.78;;
37873;SDS011;23709;48.078;11.684;2023-05-07T14:55:08;4.93;;;3.28;;
37873;SDS011;23709;48.078;11.684;2023-05-07T14:57:41;3.45;;;2.60;;
37873;SDS011;23709;48.078;11.684;2023-05-07T15:00:13;4.57;;;3.33;;
37873;SDS011;23709;48.078;11.684;2023-05-07T15:02:46;4.05;;;3.60;;
37873;SDS011;23709;48.078;11.684;2023-05-07T15:05:18;5.57;;;3.33;;
37873;SDS011;23709;48.078;11.684;2023-05-07T15:07:51;4.75;;;3.20;;
37873;SDS011;23709;48.078;11.684;2023-05-07T15:10:28;6.63;;;3.17;;
37873;SDS011;23709;48.078;11.684;2023-05-07T15:13:00;5.32;;;3.38;;
37873;SDS011;23709;48.078;11.684;2023-05-07T15:15:33;3.22;;;2.90;;
37873;SDS011;23709;48.078;11.684;2023-05-07T15:18:06;5.55;;;3.20;;
37873;SDS011;23709;48.078;11.684;2023-05-07T15:20:38;7.40;;;3.30;;
37873;SDS011;23709;48.078;11.684;2023-05-07T15:23:11;8.40;;;3.05;;
37873;SDS011;23709;48.078;11.684;2023-05-07T15:25:48;4.15;;;2.85;;
37873;SDS011;23709;48.078;11.684;2023-05-07T15:28:23;5.70;;;3.08;;
37873;SDS011;23709;48.078;11.684;2023-05-07T15:30:59;3.42;;;3.05;;